Time;durP1;ratioP1;P1;durP2;ratioP2;P2;SDS_P1;SDS_P2;PMS_P1;PMS_P2;Temp;Humidity;BMP_temperature;BMP_pressure;BME280_temperature;BME280_humidity;BME280_pressure;Samples;Min_cycle;Max_cycle;Signal;HPM_P1;HPM_P2
2022/04/24 00:01:42;;;;;;;;;;;9.20;99.90;;;;;;5037707;28;20378;-82
2022/04/24 00:04:09;;;;;;;;;;;9.20;99.90;;;;;;5039266;28;19932;-81
2022/04/24 00:06:35;;;;;;;;;;;9.20;99.90;;;;;;5026629;28;19932;-81
2022/04/24 00:09:02;;;;;;;;;;;9.20;99.90;;;;;;5036659;28;19928;-81
2022/04/24 00:11:30;;;;;;;;;;;9.20;99.90;;;;;;5025245;28;20417;-81
2022/04/24 00:13:56;;;;;;;;;;;9.10;99.90;;;;;;5036699;28;19928;-82
2022/04/24 00:16:23;;;;;;;;;;;9.10;99.90;;;;;;5037879;28;19924;-83
2022/04/24 00:18:49;;;;;;;;;;;9.10;99.90;;;;;;5032723;28;19929;-82
2022/04/24 00:21:16;;;;;;;;;;;9.20;99.90;;;;;;5038289;28;19929;-81
2022/04/24 00:23:43;;;;;;;;;;;9.20;99.90;;;;;;5039229;28;19932;-82
2022/04/24 00:26:10;;;;;;;;;;;9.20;99.90;;;;;;5034588;28;20264;-82
2022/04/24 00:28:36;;;;;;;;;;;9.10;99.90;;;;;;5043204;28;19925;-82
2022/04/24 00:31:03;;;;;;;;;;;9.10;99.90;;;;;;5047384;28;19928;-82
2022/04/24 00:33:29;;;;;;;;;;;9.00;99.90;;;;;;5026703;28;19944;-82
2022/04/24 00:35:56;;;;;;;;;;;9.00;99.90;;;;;;5047345;28;19929;-82
2022/04/24 00:38:23;;;;;;;;;;;9.00;99.90;;;;;;5038789;28;19999;-86
2022/04/24 00:40:49;;;;;;;;;;;8.90;99.90;;;;;;5038038;28;19929;-82
2022/04/24 00:43:16;;;;;;;;;;;8.90;99.90;;;;;;5042114;28;19924;-82
2022/04/24 00:45:42;;;;;;;;;;;8.80;99.90;;;;;;5055921;28;19951;-82
2022/04/24 00:48:09;;;;;;;;;;;8.70;99.90;;;;;;5030886;28;19925;-82
2022/04/24 00:50:35;;;;;;;;;;;8.70;99.90;;;;;;5044175;28;20429;-82
2022/04/24 00:53:02;;;;;;;;;;;8.70;99.90;;;;;;5038170;28;19968;-82
2022/04/24 00:55:28;;;;;;;;;;;8.60;99.90;;;;;;5038952;28;19932;-82
2022/04/24 00:57:55;;;;;;;;;;;8.60;99.90;;;;;;5053241;28;19925;-82
2022/04/24 01:00:21;;;;;;;;;;;8.60;99.90;;;;;;5044942;28;20467;-83
2022/04/24 01:02:48;;;;;;;;;;;8.40;99.90;;;;;;5043395;28;20387;-82
2022/04/24 01:05:17;;;;;;;;;;;8.40;99.90;;;;;;5034029;28;19936;-81
2022/04/24 01:07:44;;;;;;;;;;;8.40;99.90;;;;;;5028793;28;20461;-81
2022/04/24 01:10:10;;;;;;;;;;;8.30;99.90;;;;;;5037470;28;19928;-83
2022/04/24 01:12:37;;;;;;;;;;;8.40;99.90;;;;;;5028090;28;19925;-81
2022/04/24 01:15:04;;;;;;;;;;;8.30;99.90;;;;;;5040047;28;19931;-81
2022/04/24 01:17:30;;;;;;;;;;;8.20;99.90;;;;;;5046472;28;19929;-82
2022/04/24 01:19:57;;;;;;;;;;;8.20;99.90;;;;;;5033654;28;19932;-82
2022/04/24 01:22:23;;;;;;;;;;;8.20;99.90;;;;;;5041555;28;19929;-82
2022/04/24 01:24:50;;;;;;;;;;;8.10;99.90;;;;;;5026160;28;19929;-82
2022/04/24 01:27:17;;;;;;;;;;;8.10;99.90;;;;;;5043290;28;19925;-81
2022/04/24 01:29:43;;;;;;;;;;;8.20;99.90;;;;;;5050869;28;19925;-81
2022/04/24 01:32:10;;;;;;;;;;;8.10;99.90;;;;;;5027103;28;20009;-81
2022/04/24 01:34:36;;;;;;;;;;;8.10;99.90;;;;;;5035617;28;19982;-83
2022/04/24 01:37:03;;;;;;;;;;;8.10;99.90;;;;;;5049701;28;19931;-80
2022/04/24 01:39:29;;;;;;;;;;;8.10;99.90;;;;;;5038876;28;19931;-83
2022/04/24 01:41:56;;;;;;;;;;;8.20;99.90;;;;;;5026174;28;19929;-80
2022/04/24 01:44:23;;;;;;;;;;;8.20;99.90;;;;;;5025121;28;19925;-80
2022/04/24 01:46:50;;;;;;;;;;;8.20;99.90;;;;;;5025557;28;19933;-80
2022/04/24 01:49:16;;;;;;;;;;;8.20;99.90;;;;;;5052683;28;20383;-81
2022/04/24 01:51:44;;;;;;;;;;;8.20;99.90;;;;;;5030374;28;19932;-81
2022/04/24 01:54:11;;;;;;;;;;;8.20;99.90;;;;;;5044393;28;19975;-80
2022/04/24 01:56:37;;;;;;;;;;;8.20;99.90;;;;;;5027466;28;19925;-81
2022/04/24 01:59:04;;;;;;;;;;;8.10;99.90;;;;;;5069910;28;19931;-82
2022/04/24 02:01:30;;;;;;;;;;;8.10;99.90;;;;;;5049513;28;19928;-86
2022/04/24 02:03:57;;;;;;;;;;;8.00;99.90;;;;;;5053640;28;19931;-81
2022/04/24 02:06:23;;;;;;;;;;;8.00;99.90;;;;;;5031218;28;19932;-80
2022/04/24 02:08:50;;;;;;;;;;;7.90;99.90;;;;;;5042905;28;19932;-81
2022/04/24 02:11:16;;;;;;;;;;;7.90;99.90;;;;;;5054413;28;19931;-82
2022/04/24 02:13:43;;;;;;;;;;;7.90;99.90;;;;;;5046253;28;19925;-80
2022/04/24 02:16:09;;;;;;;;;;;7.90;99.90;;;;;;5043018;28;19925;-82
2022/04/24 02:18:36;;;;;;;;;;;7.90;99.90;;;;;;5048886;28;20015;-82
2022/04/24 02:21:02;;;;;;;;;;;7.90;99.90;;;;;;5070476;28;19928;-83
2022/04/24 02:23:29;;;;;;;;;;;7.80;99.90;;;;;;5031058;28;19926;-87
2022/04/24 02:25:56;;;;;;;;;;;7.80;99.90;;;;;;5031507;28;19928;-82
2022/04/24 02:28:22;;;;;;;;;;;7.80;99.90;;;;;;5036161;28;19932;-82
2022/04/24 02:30:49;;;;;;;;;;;7.70;99.90;;;;;;5039363;28;19932;-82
2022/04/24 02:33:15;;;;;;;;;;;7.60;99.90;;;;;;5034068;28;19925;-82
2022/04/24 02:35:42;;;;;;;;;;;7.60;99.90;;;;;;5032399;28;19932;-82
2022/04/24 02:38:08;;;;;;;;;;;7.60;99.90;;;;;;5041277;28;19925;-82
2022/04/24 02:40:35;;;;;;;;;;;7.60;99.90;;;;;;5034168;28;19925;-82
2022/04/24 02:43:02;;;;;;;;;;;7.50;99.90;;;;;;5044702;28;20003;-82
2022/04/24 02:45:28;;;;;;;;;;;7.50;99.90;;;;;;5045152;28;19925;-83
2022/04/24 02:47:55;;;;;;;;;;;7.50;99.90;;;;;;5043772;28;19936;-81
2022/04/24 02:50:23;;;;;;;;;;;7.30;99.90;;;;;;5054163;28;19925;-82
2022/04/24 02:52:49;;;;;;;;;;;7.30;99.90;;;;;;5037782;28;19960;-84
2022/04/24 02:55:16;;;;;;;;;;;7.20;99.90;;;;;;5041856;28;19929;-83
2022/04/24 02:57:43;;;;;;;;;;;7.30;99.90;;;;;;5043488;28;20380;-83
2022/04/24 03:00:09;;;;;;;;;;;7.20;99.90;;;;;;5041928;28;20474;-83
2022/04/24 03:02:36;;;;;;;;;;;7.20;99.90;;;;;;5041464;28;19925;-84
2022/04/24 03:05:02;;;;;;;;;;;7.20;99.90;;;;;;5028920;28;19963;-83
2022/04/24 03:07:29;;;;;;;;;;;7.30;99.90;;;;;;5040903;28;20007;-82
2022/04/24 03:09:55;;;;;;;;;;;7.30;99.90;;;;;;5040168;28;19928;-83
2022/04/24 03:12:22;;;;;;;;;;;7.20;99.90;;;;;;5050180;28;19924;-82
2022/04/24 03:14:48;;;;;;;;;;;7.20;99.90;;;;;;5033277;28;19932;-84
2022/04/24 03:17:15;;;;;;;;;;;7.20;99.90;;;;;;5040944;28;19931;-83
2022/04/24 03:19:42;;;;;;;;;;;7.20;99.90;;;;;;5041003;28;19952;-83
2022/04/24 03:22:08;;;;;;;;;;;7.20;99.90;;;;;;5048094;28;20368;-83
2022/04/24 03:24:35;;;;;;;;;;;7.20;99.90;;;;;;5039036;28;19925;-87
2022/04/24 03:27:01;;;;;;;;;;;7.20;99.90;;;;;;5034587;28;19928;-84
2022/04/24 03:29:29;;;;;;;;;;;7.20;99.90;;;;;;5045675;28;19924;-82
2022/04/24 03:31:55;;;;;;;;;;;7.10;99.90;;;;;;5051895;28;19924;-83
2022/04/24 03:34:22;;;;;;;;;;;7.00;99.90;;;;;;5021388;28;20407;-81
2022/04/24 03:36:48;;;;;;;;;;;7.00;99.90;;;;;;5036054;28;19925;-83
2022/04/24 03:39:15;;;;;;;;;;;7.00;99.90;;;;;;5039224;28;19924;-82
2022/04/24 03:41:41;;;;;;;;;;;7.00;99.90;;;;;;5044556;28;19929;-86
2022/04/24 03:44:08;;;;;;;;;;;6.90;99.90;;;;;;5037262;28;19924;-82
2022/04/24 03:46:34;;;;;;;;;;;6.90;99.90;;;;;;5024661;28;19932;-82
2022/04/24 03:49:01;;;;;;;;;;;6.90;99.90;;;;;;5033573;28;19936;-82
2022/04/24 03:51:28;;;;;;;;;;;6.90;99.90;;;;;;5039055;28;19926;-83
2022/04/24 03:53:54;;;;;;;;;;;6.80;99.90;;;;;;5052272;28;20015;-82
2022/04/24 03:56:21;;;;;;;;;;;6.80;99.90;;;;;;5025572;28;19925;-82
2022/04/24 03:58:47;;;;;;;;;;;6.80;99.90;;;;;;5046232;28;19925;-82
2022/04/24 04:01:14;;;;;;;;;;;6.80;99.90;;;;;;5043778;28;19978;-82
2022/04/24 04:03:40;;;;;;;;;;;6.80;99.90;;;;;;5029193;28;20364;-83
2022/04/24 04:06:07;;;;;;;;;;;6.80;99.90;;;;;;5052050;28;19925;-82
2022/04/24 04:08:33;;;;;;;;;;;6.80;99.90;;;;;;5049885;28;19986;-82
2022/04/24 04:11:00;;;;;;;;;;;6.80;99.90;;;;;;5036296;28;19925;-82
2022/04/24 04:13:27;;;;;;;;;;;6.70;99.90;;;;;;5045171;28;19975;-82
2022/04/24 04:15:53;;;;;;;;;;;6.70;99.90;;;;;;5055215;28;19924;-82
2022/04/24 04:18:20;;;;;;;;;;;6.60;99.90;;;;;;5043833;28;19932;-82
2022/04/24 04:20:46;;;;;;;;;;;6.60;99.90;;;;;;5050018;28;19924;-83
2022/04/24 04:23:13;;;;;;;;;;;6.60;99.90;;;;;;5053317;28;19936;-82
2022/04/24 04:25:39;;;;;;;;;;;6.70;99.90;;;;;;5037505;28;19936;-88
2022/04/24 04:28:06;;;;;;;;;;;6.60;99.90;;;;;;5048184;28;19924;-83
2022/04/24 04:30:32;;;;;;;;;;;6.70;99.90;;;;;;5048848;28;19928;-83
2022/04/24 04:32:59;;;;;;;;;;;6.70;99.90;;;;;;5039656;28;19928;-83
2022/04/24 04:35:26;;;;;;;;;;;6.60;99.90;;;;;;5048408;28;19925;-82
2022/04/24 04:37:53;;;;;;;;;;;6.70;99.90;;;;;;5038840;28;19925;-83
2022/04/24 04:40:20;;;;;;;;;;;6.70;99.90;;;;;;5050063;28;19925;-83
2022/04/24 04:42:47;;;;;;;;;;;6.70;99.90;;;;;;5033005;28;19931;-83
2022/04/24 04:45:14;;;;;;;;;;;6.70;99.90;;;;;;5053881;28;19944;-82
2022/04/24 04:47:40;;;;;;;;;;;6.70;99.90;;;;;;5025523;28;19925;-88
2022/04/24 04:50:07;;;;;;;;;;;6.80;99.90;;;;;;5037726;28;19924;-83
2022/04/24 04:52:34;;;;;;;;;;;6.80;99.90;;;;;;5035329;28;20364;-83
2022/04/24 04:55:01;;;;;;;;;;;6.80;99.90;;;;;;5033687;28;19986;-82
2022/04/24 04:57:27;;;;;;;;;;;6.80;99.90;;;;;;5043308;28;19929;-82
2022/04/24 04:59:54;;;;;;;;;;;6.80;99.90;;;;;;5031775;28;20011;-83
2022/04/24 05:02:21;;;;;;;;;;;6.80;99.90;;;;;;5028260;28;19979;-83
2022/04/24 05:04:47;;;;;;;;;;;6.80;99.90;;;;;;5029176;28;19939;-83
2022/04/24 05:07:14;;;;;;;;;;;6.80;99.90;;;;;;5053041;28;20023;-83
2022/04/24 05:09:40;;;;;;;;;;;6.90;99.90;;;;;;5051137;28;19932;-83
2022/04/24 05:12:07;;;;;;;;;;;7.00;99.90;;;;;;5036127;28;19925;-83
2022/04/24 05:14:34;;;;;;;;;;;7.10;99.90;;;;;;5049168;28;19925;-83
2022/04/24 05:17:00;;;;;;;;;;;7.10;99.90;;;;;;5034150;28;20434;-84
2022/04/24 05:19:27;;;;;;;;;;;7.10;99.90;;;;;;5045957;28;19932;-84
2022/04/24 05:21:53;;;;;;;;;;;7.20;99.90;;;;;;5036140;28;19929;-84
2022/04/24 05:24:20;;;;;;;;;;;7.20;99.90;;;;;;5053469;28;19931;-83
2022/04/24 05:26:46;;;;;;;;;;;7.20;99.90;;;;;;5045968;28;19931;-84
2022/04/24 05:29:14;;;;;;;;;;;7.30;99.90;;;;;;5049925;28;19925;-84
2022/04/24 05:31:40;;;;;;;;;;;7.30;99.90;;;;;;5059715;28;19924;-83
2022/04/24 05:34:07;;;;;;;;;;;7.40;99.90;;;;;;5049856;28;20283;-84
2022/04/24 05:36:34;;;;;;;;;;;7.50;99.90;;;;;;5038676;28;19947;-82
2022/04/24 05:39:00;;;;;;;;;;;7.60;99.90;;;;;;5034116;28;19970;-85
2022/04/24 05:41:27;;;;;;;;;;;7.60;99.90;;;;;;5032717;28;19925;-87
2022/04/24 05:43:53;;;;;;;;;;;7.60;99.90;;;;;;5037512;28;19928;-82
2022/04/24 05:46:20;;;;;;;;;;;7.70;99.90;;;;;;5049096;28;19924;-84
2022/04/24 05:48:46;;;;;;;;;;;7.70;99.90;;;;;;5035373;28;19924;-85
2022/04/24 05:51:13;;;;;;;;;;;7.70;99.90;;;;;;5038714;28;19928;-84
2022/04/24 05:53:39;;;;;;;;;;;7.80;99.90;;;;;;5029352;28;19925;-83
2022/04/24 05:56:06;;;;;;;;;;;7.90;99.90;;;;;;5021372;28;19921;-86
2022/04/24 05:58:33;;;;;;;;;;;7.90;99.90;;;;;;5023640;28;20649;-83
2022/04/24 06:00:59;;;;;;;;;;;8.00;99.90;;;;;;5025168;28;20027;-83
2022/04/24 06:03:26;;;;;;;;;;;8.10;99.90;;;;;;5027532;28;20020;-83
2022/04/24 06:05:53;;;;;;;;;;;8.30;99.90;;;;;;5045155;28;20395;-84
2022/04/24 06:08:20;;;;;;;;;;;8.50;99.90;;;;;;5026021;28;19925;-83
2022/04/24 06:10:46;;;;;;;;;;;8.80;99.90;;;;;;5023825;28;19926;-86
2022/04/24 06:13:13;;;;;;;;;;;8.90;99.90;;;;;;5031778;28;20440;-83
2022/04/24 06:15:39;;;;;;;;;;;9.10;99.90;;;;;;5019449;28;19929;-83
2022/04/24 06:18:06;;;;;;;;;;;9.20;99.90;;;;;;5019251;28;19932;-81
2022/04/24 06:20:32;;;;;;;;;;;9.40;99.90;;;;;;5021210;28;19929;-83
2022/04/24 06:22:59;;;;;;;;;;;9.40;99.90;;;;;;5021250;28;20372;-83
2022/04/24 06:25:25;;;;;;;;;;;9.70;99.90;;;;;;5021171;28;19929;-84
2022/04/24 06:27:52;;;;;;;;;;;9.70;99.90;;;;;;5022732;28;19940;-83
2022/04/24 06:30:18;;;;;;;;;;;9.80;99.90;;;;;;5022428;28;20971;-83
2022/04/24 06:32:45;;;;;;;;;;;10.00;99.90;;;;;;5040829;28;19924;-83
2022/04/24 06:35:12;;;;;;;;;;;10.00;99.90;;;;;;5022109;28;19933;-83
2022/04/24 06:37:38;;;;;;;;;;;10.10;99.90;;;;;;5024833;28;19940;-83
2022/04/24 06:40:05;;;;;;;;;;;10.20;99.90;;;;;;5025698;28;19924;-83
2022/04/24 06:42:31;;;;;;;;;;;10.30;99.90;;;;;;5027134;28;19925;-82
2022/04/24 06:44:58;;;;;;;;;;;10.60;99.90;;;;;;5024692;28;19925;-83
2022/04/24 06:47:27;;;;;;;;;;;10.50;99.90;;;;;;5022274;28;19929;-83
2022/04/24 06:49:53;;;;;;;;;;;10.70;99.90;;;;;;5019755;28;19933;-83
2022/04/24 06:52:20;;;;;;;;;;;10.80;99.90;;;;;;5017076;28;19971;-83
2022/04/24 06:54:47;;;;;;;;;;;11.00;99.90;;;;;;5019039;28;20323;-83
2022/04/24 06:57:14;;;;;;;;;;;11.00;99.90;;;;;;5015963;28;19925;-83
2022/04/24 06:59:40;;;;;;;;;;;10.80;99.90;;;;;;5018821;28;19925;-84
2022/04/24 07:02:07;;;;;;;;;;;10.70;99.90;;;;;;5018637;28;19932;-85
2022/04/24 07:04:33;;;;;;;;;;;10.80;99.90;;;;;;5022150;28;19936;-84
2022/04/24 07:07:00;;;;;;;;;;;11.10;99.90;;;;;;5015848;28;20262;-85
2022/04/24 07:09:27;;;;;;;;;;;11.20;99.90;;;;;;5035804;28;20020;-83
2022/04/24 07:11:53;;;;;;;;;;;11.20;99.90;;;;;;5037521;28;19929;-86
2022/04/24 07:14:20;;;;;;;;;;;11.50;99.90;;;;;;5034461;28;19925;-82
2022/04/24 07:16:46;;;;;;;;;;;11.70;99.90;;;;;;5061198;28;19970;-82
2022/04/24 07:19:13;;;;;;;;;;;11.70;99.90;;;;;;5023490;28;19924;-83
2022/04/24 07:21:39;;;;;;;;;;;11.60;99.90;;;;;;5013699;28;19925;-83
2022/04/24 07:24:06;;;;;;;;;;;11.50;99.90;;;;;;5030847;28;19925;-84
2022/04/24 07:26:32;;;;;;;;;;;11.50;99.90;;;;;;5025914;28;19924;-83
2022/04/24 07:28:59;;;;;;;;;;;11.80;99.90;;;;;;5026349;28;20341;-83
2022/04/24 07:31:26;;;;;;;;;;;12.10;99.90;;;;;;5036960;28;19959;-83
2022/04/24 07:33:56;;;;;;;;;;;12.20;99.90;;;;;;5035283;28;19936;-85
2022/04/24 07:36:23;;;;;;;;;;;11.90;99.90;;;;;;5036560;28;19929;-82
2022/04/24 07:38:50;;;;;;;;;;;12.00;99.90;;;;;;5010443;28;20430;-82
2022/04/24 07:41:16;;;;;;;;;;;12.30;99.90;;;;;;5016903;28;20033;-83
2022/04/24 07:43:48;;;;;;;;;;;12.40;99.90;;;;;;5015559;28;19933;-83
2022/04/24 07:46:14;;;;;;;;;;;12.70;99.90;;;;;;5021915;28;20585;-83
2022/04/24 07:48:41;;;;;;;;;;;12.70;99.90;;;;;;5014917;28;20368;-83
2022/04/24 07:51:07;;;;;;;;;;;12.80;99.90;;;;;;5017900;28;19928;-84
2022/04/24 07:53:34;;;;;;;;;;;13.00;99.90;;;;;;5022201;28;20388;-83
2022/04/24 07:56:00;;;;;;;;;;;13.10;99.90;;;;;;5025021;28;19928;-82
2022/04/24 07:58:27;;;;;;;;;;;13.00;99.10;;;;;;5037901;28;20368;-83
2022/04/24 08:00:54;;;;;;;;;;;13.00;98.30;;;;;;5018672;28;20298;-84
2022/04/24 08:03:20;;;;;;;;;;;13.00;97.80;;;;;;5040737;28;19979;-83
2022/04/24 08:05:47;;;;;;;;;;;13.20;99.40;;;;;;5037731;28;19937;-83
2022/04/24 08:08:14;;;;;;;;;;;13.00;98.20;;;;;;5044235;28;19933;-83
2022/04/24 08:10:41;;;;;;;;;;;13.40;98.60;;;;;;5036963;28;20342;-83
2022/04/24 08:13:08;;;;;;;;;;;13.40;97.90;;;;;;5038624;28;19931;-83
2022/04/24 08:15:35;;;;;;;;;;;13.70;97.70;;;;;;5020088;28;20441;-83
2022/04/24 08:18:01;;;;;;;;;;;13.80;97.60;;;;;;5039893;28;19956;-83
2022/04/24 08:20:28;;;;;;;;;;;14.00;97.10;;;;;;5036901;28;20020;-83
2022/04/24 08:22:54;;;;;;;;;;;13.90;97.10;;;;;;5040632;28;20019;-84
2022/04/24 08:25:21;;;;;;;;;;;13.80;95.10;;;;;;5037624;28;20012;-83
2022/04/24 08:27:48;;;;;;;;;;;13.90;97.10;;;;;;5025389;28;19935;-83
2022/04/24 08:30:14;;;;;;;;;;;13.80;95.30;;;;;;5020673;28;19929;-83
2022/04/24 08:32:41;;;;;;;;;;;14.00;96.30;;;;;;5046755;28;19932;-87
2022/04/24 08:35:07;;;;;;;;;;;14.00;95.00;;;;;;5035653;28;19933;-82
2022/04/24 08:37:34;;;;;;;;;;;14.10;95.70;;;;;;5012985;28;19929;-84
2022/04/24 08:40:00;;;;;;;;;;;14.30;95.00;;;;;;5003404;28;20012;-83
2022/04/24 08:42:27;;;;;;;;;;;14.10;94.60;;;;;;5007818;28;19929;-85
2022/04/24 08:44:55;;;;;;;;;;;14.40;94.90;;;;;;5011342;28;19940;-85
2022/04/24 08:47:22;;;;;;;;;;;14.40;93.80;;;;;;5013234;28;19965;-85
2022/04/24 08:49:49;;;;;;;;;;;14.10;93.50;;;;;;5008878;28;19926;-84
2022/04/24 08:52:15;;;;;;;;;;;14.20;95.70;;;;;;5000145;28;19933;-84
2022/04/24 08:54:42;;;;;;;;;;;14.20;94.30;;;;;;5020355;28;20506;-84
2022/04/24 08:57:08;;;;;;;;;;;14.40;95.20;;;;;;5008421;28;20040;-81
2022/04/24 08:59:35;;;;;;;;;;;14.60;94.70;;;;;;5010781;28;20013;-83
2022/04/24 09:02:02;;;;;;;;;;;14.80;94.50;;;;;;4996958;28;19925;-82
2022/04/24 09:04:28;;;;;;;;;;;15.00;92.80;;;;;;5011865;28;19925;-82
2022/04/24 09:06:55;;;;;;;;;;;14.50;92.40;;;;;;5007318;28;19936;-83
2022/04/24 09:09:21;;;;;;;;;;;14.70;93.30;;;;;;5007948;28;19925;-82
2022/04/24 09:11:48;;;;;;;;;;;14.50;91.10;;;;;;5024081;28;19929;-82
2022/04/24 09:14:19;;;;;;;;;;;14.90;91.40;;;;;;5023235;28;19928;-84
2022/04/24 09:16:49;;;;;;;;;;;15.00;90.60;;;;;;5018105;28;19934;-82
2022/04/24 09:19:16;;;;;;;;;;;15.20;90.60;;;;;;4998416;28;19929;-83
2022/04/24 09:21:42;;;;;;;;;;;15.00;91.50;;;;;;5003617;28;19968;-85
2022/04/24 09:24:09;;;;;;;;;;;14.90;91.80;;;;;;5016124;28;19936;-82
2022/04/24 09:26:36;;;;;;;;;;;14.90;90.90;;;;;;4998058;28;20037;-81
2022/04/24 09:29:02;;;;;;;;;;;14.90;90.50;;;;;;5002168;28;20365;-87
2022/04/24 09:31:29;;;;;;;;;;;15.00;91.00;;;;;;5008879;28;20288;-82
2022/04/24 09:33:56;;;;;;;;;;;15.00;91.70;;;;;;5011956;28;19933;-83
2022/04/24 09:36:22;;;;;;;;;;;15.20;90.80;;;;;;5012988;28;19926;-82
2022/04/24 09:38:49;;;;;;;;;;;15.20;90.50;;;;;;5005739;28;19925;-83
2022/04/24 09:41:16;;;;;;;;;;;15.50;86.10;;;;;;5008446;28;19937;-82
2022/04/24 09:43:42;;;;;;;;;;;15.40;87.20;;;;;;4993979;28;19969;-83
2022/04/24 09:46:09;;;;;;;;;;;15.20;89.60;;;;;;4998632;28;19930;-83
2022/04/24 09:48:35;;;;;;;;;;;14.90;87.20;;;;;;5000678;28;20004;-82
2022/04/24 09:51:02;;;;;;;;;;;14.90;88.90;;;;;;5007761;28;19930;-85
2022/04/24 09:53:29;;;;;;;;;;;15.30;88.20;;;;;;4990380;28;19933;-84
2022/04/24 09:55:55;;;;;;;;;;;15.40;87.30;;;;;;5009975;28;19925;-84
2022/04/24 09:58:22;;;;;;;;;;;15.00;87.60;;;;;;5006492;28;19941;-83
2022/04/24 10:00:49;;;;;;;;;;;15.00;89.40;;;;;;5001744;28;19929;-83
2022/04/24 10:03:16;;;;;;;;;;;15.40;86.40;;;;;;5022168;28;19925;-82
2022/04/24 10:05:43;;;;;;;;;;;15.40;87.80;;;;;;5003227;28;19936;-80
2022/04/24 10:08:09;;;;;;;;;;;15.50;87.70;;;;;;4997992;28;20337;-83
2022/04/24 10:10:36;;;;;;;;;;;15.60;87.70;;;;;;5006944;28;19934;-84
2022/04/24 10:13:02;;;;;;;;;;;15.70;89.40;;;;;;5000408;28;19925;-83
2022/04/24 10:15:29;;;;;;;;;;;15.70;86.60;;;;;;5008565;28;19976;-84
2022/04/24 10:17:56;;;;;;;;;;;15.70;88.00;;;;;;5010763;28;19930;-84
2022/04/24 10:20:23;;;;;;;;;;;15.90;85.70;;;;;;5012912;28;19929;-85
2022/04/24 10:22:50;;;;;;;;;;;16.00;83.10;;;;;;5010174;28;19979;-85
2022/04/24 10:25:17;;;;;;;;;;;15.80;83.00;;;;;;5004681;28;19926;-84
2022/04/24 10:27:43;;;;;;;;;;;15.20;79.90;;;;;;5002362;28;19929;-87
2022/04/24 10:30:10;;;;;;;;;;;15.50;83.40;;;;;;5000222;28;19937;-84
2022/04/24 10:32:37;;;;;;;;;;;15.60;83.00;;;;;;4995492;28;19933;-83
2022/04/24 10:35:03;;;;;;;;;;;15.40;81.20;;;;;;4998002;28;19930;-84
2022/04/24 10:37:30;;;;;;;;;;;15.40;79.40;;;;;;5014958;28;19933;-84
2022/04/24 10:39:57;;;;;;;;;;;15.60;79.70;;;;;;5019944;28;19935;-85
2022/04/24 10:42:24;;;;;;;;;;;15.60;78.50;;;;;;5029579;28;20283;-86
2022/04/24 10:44:51;;;;;;;;;;;15.70;77.00;;;;;;5026218;28;20368;-84
2022/04/24 10:47:17;;;;;;;;;;;15.80;78.70;;;;;;5020209;28;19968;-84
2022/04/24 10:49:44;;;;;;;;;;;16.00;76.00;;;;;;5020765;28;20292;-85
2022/04/24 10:52:11;;;;;;;;;;;15.90;75.00;;;;;;5042008;28;19925;-84
2022/04/24 10:54:38;;;;;;;;;;;16.00;75.50;;;;;;5042072;28;19924;-85
2022/04/24 10:57:05;;;;;;;;;;;15.90;74.80;;;;;;5037694;28;19925;-84
2022/04/24 10:59:31;;;;;;;;;;;15.70;72.10;;;;;;5036409;28;19928;-83
2022/04/24 11:01:58;;;;;;;;;;;15.70;76.00;;;;;;5040924;28;19929;-84
2022/04/24 11:04:25;;;;;;;;;;;15.60;74.70;;;;;;5046180;28;19939;-84
2022/04/24 11:06:52;;;;;;;;;;;15.80;75.80;;;;;;5040668;28;20351;-84
2022/04/24 11:09:18;;;;;;;;;;;16.10;76.90;;;;;;5019025;28;20364;-84
2022/04/24 11:11:45;;;;;;;;;;;16.10;78.20;;;;;;5046711;28;19925;-85
2022/04/24 11:14:11;;;;;;;;;;;16.20;77.40;;;;;;5026726;28;19926;-87
2022/04/24 11:16:38;;;;;;;;;;;16.30;75.90;;;;;;5016180;28;19929;-84
2022/04/24 11:19:05;;;;;;;;;;;16.10;76.00;;;;;;5042505;28;19939;-87
2022/04/24 11:21:32;;;;;;;;;;;16.00;76.10;;;;;;5019338;28;20361;-84
2022/04/24 11:23:59;;;;;;;;;;;15.90;78.00;;;;;;5023176;28;19932;-83
2022/04/24 11:26:26;;;;;;;;;;;15.70;78.80;;;;;;5018927;28;19932;-84
2022/04/24 11:28:52;;;;;;;;;;;15.70;75.30;;;;;;5037754;28;19928;-84
2022/04/24 11:31:19;;;;;;;;;;;15.80;77.50;;;;;;5022710;28;19925;-84
2022/04/24 11:33:45;;;;;;;;;;;15.90;77.10;;;;;;5046696;28;19929;-85
2022/04/24 11:36:12;;;;;;;;;;;15.90;77.90;;;;;;5046801;28;19933;-89
2022/04/24 11:38:38;;;;;;;;;;;15.90;77.40;;;;;;5032015;28;19936;-84
2022/04/24 11:41:05;;;;;;;;;;;16.00;76.50;;;;;;5046866;28;19933;-84
2022/04/24 11:43:31;;;;;;;;;;;15.90;77.90;;;;;;5022286;28;19925;-84
2022/04/24 11:51:27;;;;;;;;;;;15.60;79.30;;;;;;5044496;28;20304;-87
2022/04/24 11:53:54;;;;;;;;;;;15.70;79.30;;;;;;5063129;28;19936;-84
2022/04/24 11:56:21;;;;;;;;;;;15.70;77.30;;;;;;5054195;28;19925;-84
2022/04/24 11:58:47;;;;;;;;;;;15.90;76.20;;;;;;5046803;28;19951;-86
2022/04/24 12:01:16;;;;;;;;;;;16.00;78.80;;;;;;5033728;28;19933;-88
2022/04/24 12:03:43;;;;;;;;;;;16.00;80.20;;;;;;5017418;28;19929;-85
2022/04/24 12:06:10;;;;;;;;;;;15.90;78.40;;;;;;5035396;28;19925;-85
2022/04/24 12:08:36;;;;;;;;;;;16.00;77.60;;;;;;5022596;28;19933;-84
2022/04/24 12:11:03;;;;;;;;;;;15.90;79.20;;;;;;5042700;28;19932;-84
2022/04/24 12:13:29;;;;;;;;;;;16.00;79.30;;;;;;5036810;28;19929;-85
2022/04/24 12:15:56;;;;;;;;;;;16.00;79.90;;;;;;5022888;28;19925;-83
2022/04/24 12:18:23;;;;;;;;;;;16.00;78.50;;;;;;5021922;28;19925;-84
2022/04/24 12:20:50;;;;;;;;;;;16.00;77.60;;;;;;5033463;28;19925;-89
2022/04/24 12:23:17;;;;;;;;;;;16.10;79.30;;;;;;5028239;28;20472;-88
2022/04/24 12:25:43;;;;;;;;;;;15.90;78.70;;;;;;5046998;28;19928;-84
2022/04/24 12:28:10;;;;;;;;;;;15.80;80.10;;;;;;5032857;28;19926;-84
2022/04/24 12:30:36;;;;;;;;;;;15.70;78.20;;;;;;5034565;28;20053;-84
2022/04/24 12:33:03;;;;;;;;;;;15.70;82.30;;;;;;5028414;28;19972;-84
2022/04/24 12:35:30;;;;;;;;;;;15.80;81.70;;;;;;5021767;28;19929;-84
2022/04/24 12:37:56;;;;;;;;;;;15.90;80.70;;;;;;5035333;28;19936;-85
2022/04/24 12:40:23;;;;;;;;;;;16.10;81.40;;;;;;5060503;28;19978;-84
2022/04/24 12:42:49;;;;;;;;;;;16.20;82.80;;;;;;5031687;28;19929;-85
2022/04/24 12:45:16;;;;;;;;;;;16.20;79.10;;;;;;5019025;28;19925;-84
2022/04/24 12:47:42;;;;;;;;;;;16.30;77.80;;;;;;5033169;28;20321;-86
2022/04/24 12:50:09;;;;;;;;;;;16.30;78.40;;;;;;5046176;28;19950;-84
2022/04/24 12:52:36;;;;;;;;;;;16.20;77.90;;;;;;5026841;28;19952;-84
2022/04/24 12:55:02;;;;;;;;;;;16.30;76.60;;;;;;5037844;28;19939;-84
2022/04/24 12:57:29;;;;;;;;;;;16.30;77.50;;;;;;5026049;28;19932;-85
2022/04/24 12:59:56;;;;;;;;;;;16.10;76.60;;;;;;5058525;28;19928;-84
2022/04/24 13:02:23;;;;;;;;;;;15.90;77.50;;;;;;5020405;28;19925;-84
2022/04/24 13:04:50;;;;;;;;;;;15.90;78.30;;;;;;5017703;28;20342;-84
2022/04/24 13:07:17;;;;;;;;;;;15.90;79.80;;;;;;5020892;28;19952;-84
2022/04/24 13:09:43;;;;;;;;;;;15.70;80.60;;;;;;5031717;28;19929;-86
2022/04/24 13:12:11;;;;;;;;;;;15.80;77.90;;;;;;5046448;28;19975;-84
2022/04/24 13:14:38;;;;;;;;;;;15.90;76.60;;;;;;5050527;28;19983;-81
2022/04/24 13:19:48;;;;;;;;;;;15.60;80.00;;;;;;5032598;28;19955;-85
2022/04/24 13:22:17;;;;;;;;;;;15.90;77.50;;;;;;5034164;28;19955;-85
2022/04/24 13:24:43;;;;;;;;;;;15.90;78.30;;;;;;5016567;28;19933;-88
2022/04/24 13:27:10;;;;;;;;;;;16.00;78.10;;;;;;5023943;28;19929;-88
2022/04/24 13:29:38;;;;;;;;;;;15.90;76.40;;;;;;5035893;28;19948;-85
2022/04/24 13:32:04;;;;;;;;;;;16.00;78.00;;;;;;5036755;28;19929;-84
2022/04/24 13:34:31;;;;;;;;;;;16.20;72.90;;;;;;5022237;28;20013;-86
2022/04/24 13:39:49;;;;;;;;;;;16.10;74.60;;;;;;4986617;28;19936;-83
2022/04/24 13:42:16;;;;;;;;;;;16.30;77.50;;;;;;5027628;28;19929;-84
2022/04/24 13:44:43;;;;;;;;;;;16.30;77.10;;;;;;5040003;28;20020;-84
2022/04/24 13:47:10;;;;;;;;;;;16.10;77.30;;;;;;5028645;28;19928;-84
2022/04/24 13:49:36;;;;;;;;;;;16.10;74.30;;;;;;5031319;28;20372;-89
2022/04/24 13:52:03;;;;;;;;;;;16.40;74.00;;;;;;5025743;28;20388;-85
2022/04/24 13:54:29;;;;;;;;;;;16.40;76.60;;;;;;5021509;28;19925;-85
2022/04/24 13:56:58;;;;;;;;;;;16.30;77.20;;;;;;5033853;28;20085;-85
2022/04/24 13:59:25;;;;;;;;;;;16.40;75.60;;;;;;5028136;28;19925;-88
2022/04/24 14:01:51;;;;;;;;;;;16.20;75.50;;;;;;5040315;28;19939;-83
2022/04/24 14:04:19;;;;;;;;;;;16.40;76.60;;;;;;5033086;28;19936;-83
2022/04/24 14:06:45;;;;;;;;;;;16.30;76.80;;;;;;5038295;28;20589;-87
2022/04/24 14:09:12;;;;;;;;;;;16.50;75.80;;;;;;5040427;28;19924;-84
2022/04/24 14:11:38;;;;;;;;;;;16.50;76.50;;;;;;5033306;28;19929;-84
2022/04/24 14:14:05;;;;;;;;;;;16.50;73.90;;;;;;5024735;28;19925;-82
2022/04/24 14:16:32;;;;;;;;;;;16.50;73.60;;;;;;5054620;28;20452;-84
2022/04/24 14:18:58;;;;;;;;;;;16.40;74.50;;;;;;5034615;28;19933;-84
2022/04/24 14:21:25;;;;;;;;;;;16.50;72.20;;;;;;5042256;28;19932;-89
2022/04/24 14:23:51;;;;;;;;;;;16.60;73.40;;;;;;5028545;28;19925;-89
2022/04/24 14:26:18;;;;;;;;;;;16.40;74.40;;;;;;5059197;28;19929;-83
2022/04/24 14:28:44;;;;;;;;;;;16.30;75.90;;;;;;5046803;28;19924;-76
2022/04/24 14:31:11;;;;;;;;;;;16.30;74.90;;;;;;5055972;28;20392;-80